sensor_id;sensor_type;location;lat;lon;timestamp;pressure;altitude;pressure_sealevel;temperature;humidity
57801;BME280;43627;42.728;23.256;2022-09-09T00:00:34;95217.94;;;17.45;100.00
57801;BME280;43627;42.728;23.256;2022-09-09T00:03:36;95219.44;;;17.40;100.00
57801;BME280;43627;42.728;23.256;2022-09-09T00:06:30;95215.66;;;17.32;100.00
57801;BME280;43627;42.728;23.256;2022-09-09T00:11:58;95215.16;;;17.28;100.00
57801;BME280;43627;42.728;23.256;2022-09-09T00:17:37;95218.66;;;17.23;100.00
57801;BME280;43627;42.728;23.256;2022-09-09T00:21:01;95196.38;;;17.27;100.00
57801;BME280;43627;42.728;23.256;2022-09-09T00:23:33;95182.84;;;17.29;100.00
57801;BME280;43627;42.728;23.256;2022-09-09T00:28:50;95182.84;;;17.29;100.00
57801;BME280;43627;42.728;23.256;2022-09-09T00:31:29;95135.97;;;16.95;100.00
57801;BME280;43627;42.728;23.256;2022-09-09T00:34:18;95160.81;;;17.06;100.00
57801;BME280;43627;42.728;23.256;2022-09-09T00:36:48;95168.81;;;16.99;100.00
57801;BME280;43627;42.728;23.256;2022-09-09T00:39:40;95164.56;;;16.98;100.00
57801;BME280;43627;42.728;23.256;2022-09-09T00:42:17;95174.78;;;16.86;100.00
57801;BME280;43627;42.728;23.256;2022-09-09T00:47:53;95186.28;;;16.84;100.00
57801;BME280;43627;42.728;23.256;2022-09-09T00:50:42;95185.78;;;16.86;100.00
57801;BME280;43627;42.728;23.256;2022-09-09T00:53:39;95184.53;;;16.81;100.00
57801;BME280;43627;42.728;23.256;2022-09-09T00:56:14;95178.78;;;16.79;100.00
57801;BME280;43627;42.728;23.256;2022-09-09T00:58:58;95156.75;;;16.68;100.00
57801;BME280;43627;42.728;23.256;2022-09-09T01:01:29;95160.25;;;16.69;100.00
57801;BME280;43627;42.728;23.256;2022-09-09T01:03:56;95183.53;;;16.73;100.00
57801;BME280;43627;42.728;23.256;2022-09-09T01:06:36;95165.44;;;16.61;100.00
57801;BME280;43627;42.728;23.256;2022-09-09T01:17:14;95189.97;;;16.59;100.00
57801;BME280;43627;42.728;23.256;2022-09-09T01:27:29;95177.44;;;16.58;100.00
57801;BME280;43627;42.728;23.256;2022-09-09T01:29:57;95179.94;;;16.56;100.00
57801;BME280;43627;42.728;23.256;2022-09-09T01:37:52;95192.13;;;16.38;100.00
57801;BME280;43627;42.728;23.256;2022-09-09T01:40:18;95165.31;;;16.22;100.00
57801;BME280;43627;42.728;23.256;2022-09-09T01:42:45;95182.66;;;16.39;100.00
57801;BME280;43627;42.728;23.256;2022-09-09T01:45:12;95197.13;;;16.34;100.00
57801;BME280;43627;42.728;23.256;2022-09-09T01:47:40;95192.78;;;16.16;100.00
57801;BME280;43627;42.728;23.256;2022-09-09T01:50:08;95183.19;;;15.95;100.00
57801;BME280;43627;42.728;23.256;2022-09-09T01:52:38;95190.38;;;15.87;100.00
57801;BME280;43627;42.728;23.256;2022-09-09T01:55:05;95194.19;;;15.95;100.00
57801;BME280;43627;42.728;23.256;2022-09-09T02:00:13;95193.78;;;15.70;100.00
57801;BME280;43627;42.728;23.256;2022-09-09T02:03:07;95187.53;;;15.70;100.00
57801;BME280;43627;42.728;23.256;2022-09-09T02:08:25;95182.22;;;15.61;100.00
57801;BME280;43627;42.728;23.256;2022-09-09T02:13:38;95176.81;;;15.40;100.00
57801;BME280;43627;42.728;23.256;2022-09-09T02:16:14;95178.81;;;15.14;100.00
57801;BME280;43627;42.728;23.256;2022-09-09T02:21:16;95183.66;;;15.25;100.00
57801;BME280;43627;42.728;23.256;2022-09-09T02:23:45;95194.78;;;15.41;100.00
57801;BME280;43627;42.728;23.256;2022-09-09T02:26:14;95179.09;;;15.48;100.00
57801;BME280;43627;42.728;23.256;2022-09-09T02:28:48;95171.34;;;15.46;100.00
57801;BME280;43627;42.728;23.256;2022-09-09T02:31:21;95190.88;;;15.54;100.00
57801;BME280;43627;42.728;23.256;2022-09-09T02:33:53;95183.88;;;15.53;100.00
57801;BME280;43627;42.728;23.256;2022-09-09T02:36:24;95199.13;;;15.54;100.00
57801;BME280;43627;42.728;23.256;2022-09-09T02:38:52;95196.09;;;15.46;100.00
57801;BME280;43627;42.728;23.256;2022-09-09T02:41:24;95192.78;;;15.42;100.00
57801;BME280;43627;42.728;23.256;2022-09-09T02:43:51;95194.44;;;15.28;100.00
57801;BME280;43627;42.728;23.256;2022-09-09T02:49:05;95195.84;;;15.18;100.00
57801;BME280;43627;42.728;23.256;2022-09-09T02:54:37;95187.69;;;15.29;100.00
57801;BME280;43627;42.728;23.256;2022-09-09T02:57:25;95172.41;;;15.23;100.00
57801;BME280;43627;42.728;23.256;2022-09-09T02:59:57;95198.09;;;15.46;100.00
57801;BME280;43627;42.728;23.256;2022-09-09T03:02:25;95189.22;;;15.62;100.00
57801;BME280;43627;42.728;23.256;2022-09-09T03:04:51;95184.34;;;15.46;100.00
57801;BME280;43627;42.728;23.256;2022-09-09T03:07:19;95190.28;;;15.38;100.00
57801;BME280;43627;42.728;23.256;2022-09-09T03:09:46;95195.34;;;15.46;100.00
57801;BME280;43627;42.728;23.256;2022-09-09T03:12:13;95201.75;;;15.37;100.00
57801;BME280;43627;42.728;23.256;2022-09-09T03:14:39;95192.47;;;15.34;100.00
57801;BME280;43627;42.728;23.256;2022-09-09T03:17:06;95193.34;;;15.46;100.00
57801;BME280;43627;42.728;23.256;2022-09-09T03:19:33;95188.03;;;15.42;100.00
57801;BME280;43627;42.728;23.256;2022-09-09T03:22:01;95195.53;;;15.42;100.00
57801;BME280;43627;42.728;23.256;2022-09-09T03:24:28;95189.47;;;15.32;100.00
57801;BME280;43627;42.728;23.256;2022-09-09T03:26:54;95176.88;;;15.20;100.00
57801;BME280;43627;42.728;23.256;2022-09-09T03:29:22;95186.97;;;15.34;100.00
57801;BME280;43627;42.728;23.256;2022-09-09T03:31:48;95184.47;;;15.31;100.00
57801;BME280;43627;42.728;23.256;2022-09-09T03:34:17;95188.63;;;15.21;100.00
57801;BME280;43627;42.728;23.256;2022-09-09T03:36:43;95167.84;;;15.14;100.00
57801;BME280;43627;42.728;23.256;2022-09-09T03:39:10;95187.06;;;15.14;100.00
57801;BME280;43627;42.728;23.256;2022-09-09T03:41:36;95188.31;;;15.13;100.00
57801;BME280;43627;42.728;23.256;2022-09-09T03:44:03;95182.56;;;15.11;100.00
57801;BME280;43627;42.728;23.256;2022-09-09T03:46:30;95194.56;;;15.13;100.00
57801;BME280;43627;42.728;23.256;2022-09-09T03:48:57;95191.59;;;15.17;100.00
57801;BME280;43627;42.728;23.256;2022-09-09T03:51:24;95198.16;;;15.25;100.00
57801;BME280;43627;42.728;23.256;2022-09-09T03:53:51;95198.94;;;15.31;100.00
57801;BME280;43627;42.728;23.256;2022-09-09T03:56:17;95202.94;;;15.30;100.00
57801;BME280;43627;42.728;23.256;2022-09-09T03:58:44;95200.03;;;15.39;100.00
57801;BME280;43627;42.728;23.256;2022-09-09T04:01:12;95195.50;;;15.36;100.00
57801;BME280;43627;42.728;23.256;2022-09-09T04:03:40;95192.63;;;15.51;100.00
57801;BME280;43627;42.728;23.256;2022-09-09T04:06:09;95205.59;;;15.51;100.00
57801;BME280;43627;42.728;23.256;2022-09-09T04:08:36;95194.78;;;15.41;100.00
57801;BME280;43627;42.728;23.256;2022-09-09T04:11:05;95182.63;;;15.54;100.00
57801;BME280;43627;42.728;23.256;2022-09-09T04:13:37;95185.66;;;15.56;100.00
57801;BME280;43627;42.728;23.256;2022-09-09T04:16:05;95188.25;;;15.65;100.00
57801;BME280;43627;42.728;23.256;2022-09-09T04:18:33;95187.97;;;15.63;100.00
57801;BME280;43627;42.728;23.256;2022-09-09T04:21:01;95200.53;;;15.69;100.00
57801;BME280;43627;42.728;23.256;2022-09-09T04:23:28;95196.31;;;15.74;100.00
57801;BME280;43627;42.728;23.256;2022-09-09T04:25:58;95202.59;;;15.80;100.00
57801;BME280;43627;42.728;23.256;2022-09-09T04:28:27;95201.84;;;15.80;100.00
57801;BME280;43627;42.728;23.256;2022-09-09T04:30:55;95203.31;;;15.75;100.00
57801;BME280;43627;42.728;23.256;2022-09-09T04:33:23;95199.50;;;15.67;100.00
57801;BME280;43627;42.728;23.256;2022-09-09T04:35:53;95199.53;;;15.73;100.00
57801;BME280;43627;42.728;23.256;2022-09-09T04:38:21;95203.53;;;15.71;100.00
57801;BME280;43627;42.728;23.256;2022-09-09T04:40:50;95196.56;;;15.76;100.00
57801;BME280;43627;42.728;23.256;2022-09-09T04:43:18;95201.84;;;15.80;100.00
57801;BME280;43627;42.728;23.256;2022-09-09T04:45:50;95203.38;;;15.86;100.00
57801;BME280;43627;42.728;23.256;2022-09-09T04:48:18;95195.66;;;15.90;100.00
57801;BME280;43627;42.728;23.256;2022-09-09T04:50:54;95186.97;;;16.03;100.00
57801;BME280;43627;42.728;23.256;2022-09-09T04:53:21;95189.88;;;16.31;100.00
57801;BME280;43627;42.728;23.256;2022-09-09T04:55:48;95190.66;;;16.43;100.00
57801;BME280;43627;42.728;23.256;2022-09-09T04:58:15;95198.47;;;16.67;100.00
57801;BME280;43627;42.728;23.256;2022-09-09T05:00:42;95189.78;;;16.68;100.00
57801;BME280;43627;42.728;23.256;2022-09-09T05:03:09;95196.34;;;16.88;100.00
57801;BME280;43627;42.728;23.256;2022-09-09T05:05:35;95181.09;;;17.48;100.00
57801;BME280;43627;42.728;23.256;2022-09-09T05:08:07;95172.09;;;18.45;100.00
57801;BME280;43627;42.728;23.256;2022-09-09T05:10:37;95181.34;;;19.41;100.00
57801;BME280;43627;42.728;23.256;2022-09-09T05:13:05;95182.38;;;20.47;97.47
57801;BME280;43627;42.728;23.256;2022-09-09T05:15:32;95191.19;;;21.21;83.51
57801;BME280;43627;42.728;23.256;2022-09-09T05:18:00;95193.09;;;21.63;76.78
57801;BME280;43627;42.728;23.256;2022-09-09T05:20:27;95170.09;;;20.80;82.28
57801;BME280;43627;42.728;23.256;2022-09-09T05:22:55;95178.84;;;21.03;79.18
57801;BME280;43627;42.728;23.256;2022-09-09T05:25:22;95160.44;;;20.87;79.31
57801;BME280;43627;42.728;23.256;2022-09-09T05:27:48;95184.47;;;21.35;76.16
57801;BME280;43627;42.728;23.256;2022-09-09T05:30:16;95187.06;;;21.59;73.67
57801;BME280;43627;42.728;23.256;2022-09-09T05:32:45;95191.31;;;21.92;70.43
57801;BME280;43627;42.728;23.256;2022-09-09T05:35:12;95183.78;;;22.33;66.40
57801;BME280;43627;42.728;23.256;2022-09-09T05:37:39;95198.09;;;22.50;65.92
57801;BME280;43627;42.728;23.256;2022-09-09T05:40:06;95198.84;;;22.50;65.15
57801;BME280;43627;42.728;23.256;2022-09-09T05:42:33;95202.16;;;22.49;63.48
57801;BME280;43627;42.728;23.256;2022-09-09T05:45:00;95199.72;;;22.59;63.35
57801;BME280;43627;42.728;23.256;2022-09-09T05:47:26;95181.34;;;22.42;64.41
57801;BME280;43627;42.728;23.256;2022-09-09T05:49:54;95194.00;;;21.98;66.15
57801;BME280;43627;42.728;23.256;2022-09-09T05:52:21;95196.00;;;21.84;68.03
57801;BME280;43627;42.728;23.256;2022-09-09T05:54:49;95194.22;;;22.00;67.90
57801;BME280;43627;42.728;23.256;2022-09-09T05:57:16;95200.72;;;22.03;67.98
57801;BME280;43627;42.728;23.256;2022-09-09T05:59:43;95199.16;;;22.07;68.34
57801;BME280;43627;42.728;23.256;2022-09-09T06:02:10;95213.47;;;22.24;69.31
57801;BME280;43627;42.728;23.256;2022-09-09T06:04:37;95212.16;;;21.99;68.84
57801;BME280;43627;42.728;23.256;2022-09-09T06:07:05;95215.41;;;21.39;72.52
57801;BME280;43627;42.728;23.256;2022-09-09T06:09:31;95202.97;;;20.89;75.35
57801;BME280;43627;42.728;23.256;2022-09-09T06:11:58;95204.16;;;20.94;76.81
57801;BME280;43627;42.728;23.256;2022-09-09T06:14:25;95204.84;;;21.19;76.61
57801;BME280;43627;42.728;23.256;2022-09-09T06:16:53;95207.97;;;21.47;75.60
57801;BME280;43627;42.728;23.256;2022-09-09T06:19:20;95211.78;;;21.76;72.81
57801;BME280;43627;42.728;23.256;2022-09-09T06:21:46;95201.00;;;21.73;71.92
57801;BME280;43627;42.728;23.256;2022-09-09T06:24:14;95185.22;;;21.81;70.40
57801;BME280;43627;42.728;23.256;2022-09-09T06:26:43;95211.38;;;22.31;68.88
57801;BME280;43627;42.728;23.256;2022-09-09T06:29:11;95204.19;;;22.35;67.45
57801;BME280;43627;42.728;23.256;2022-09-09T06:31:38;95199.28;;;22.28;69.12
57801;BME280;43627;42.728;23.256;2022-09-09T06:34:07;95203.56;;;22.56;66.62
57801;BME280;43627;42.728;23.256;2022-09-09T06:36:35;95191.53;;;22.74;65.00
57801;BME280;43627;42.728;23.256;2022-09-09T06:39:04;95204.50;;;22.71;65.22
57801;BME280;43627;42.728;23.256;2022-09-09T06:41:34;95188.91;;;22.42;66.15
57801;BME280;43627;42.728;23.256;2022-09-09T06:44:01;95178.75;;;22.44;65.09
57801;BME280;43627;42.728;23.256;2022-09-09T06:46:30;95195.63;;;22.60;61.17
57801;BME280;43627;42.728;23.256;2022-09-09T06:48:59;95207.72;;;22.75;60.14
57801;BME280;43627;42.728;23.256;2022-09-09T06:51:29;95196.78;;;22.91;59.82
57801;BME280;43627;42.728;23.256;2022-09-09T06:53:58;95199.38;;;23.23;58.84
57801;BME280;43627;42.728;23.256;2022-09-09T06:56:27;95217.66;;;23.31;57.63
57801;BME280;43627;42.728;23.256;2022-09-09T06:59:00;95212.28;;;23.33;56.73
57801;BME280;43627;42.728;23.256;2022-09-09T07:01:33;95210.84;;;23.40;56.56
57801;BME280;43627;42.728;23.256;2022-09-09T07:04:00;95204.03;;;23.41;55.37
57801;BME280;43627;42.728;23.256;2022-09-09T07:06:32;95188.56;;;23.53;55.54
57801;BME280;43627;42.728;23.256;2022-09-09T07:09:00;95206.19;;;23.56;55.92
57801;BME280;43627;42.728;23.256;2022-09-09T07:11:30;95201.47;;;23.30;56.49
57801;BME280;43627;42.728;23.256;2022-09-09T07:13:58;95202.66;;;23.34;56.78
57801;BME280;43627;42.728;23.256;2022-09-09T07:16:25;95202.84;;;23.36;56.09
57801;BME280;43627;42.728;23.256;2022-09-09T07:18:54;95195.72;;;23.49;55.73
57801;BME280;43627;42.728;23.256;2022-09-09T07:21:26;95203.97;;;23.75;55.44
57801;BME280;43627;42.728;23.256;2022-09-09T07:23:53;95201.91;;;23.55;54.32
57801;BME280;43627;42.728;23.256;2022-09-09T07:26:22;95199.81;;;23.48;54.49
57801;BME280;43627;42.728;23.256;2022-09-09T07:28:49;95161.97;;;23.65;53.64
57801;BME280;43627;42.728;23.256;2022-09-09T07:31:18;95200.91;;;24.07;52.40
57801;BME280;43627;42.728;23.256;2022-09-09T07:33:47;95159.88;;;24.08;51.85
57801;BME280;43627;42.728;23.256;2022-09-09T07:38:53;95184.94;;;24.65;51.21
57801;BME280;43627;42.728;23.256;2022-09-09T07:44:08;95211.53;;;25.10;49.33
57801;BME280;43627;42.728;23.256;2022-09-09T07:46:35;95200.88;;;25.59;48.06
57801;BME280;43627;42.728;23.256;2022-09-09T07:49:02;95181.47;;;25.46;47.86
57801;BME280;43627;42.728;23.256;2022-09-09T07:51:34;95200.13;;;25.67;48.06
57801;BME280;43627;42.728;23.256;2022-09-09T07:54:04;95202.22;;;25.81;47.15
57801;BME280;43627;42.728;23.256;2022-09-09T07:56:32;95208.28;;;25.42;47.04
57801;BME280;43627;42.728;23.256;2022-09-09T07:58:59;95200.75;;;25.88;46.14
57801;BME280;43627;42.728;23.256;2022-09-09T08:01:33;95193.28;;;25.83;45.68
57801;BME280;43627;42.728;23.256;2022-09-09T08:04:03;95202.91;;;25.51;46.07
57801;BME280;43627;42.728;23.256;2022-09-09T08:06:33;95198.22;;;25.46;46.69
57801;BME280;43627;42.728;23.256;2022-09-09T08:09:00;95200.47;;;25.55;46.29
57801;BME280;43627;42.728;23.256;2022-09-09T08:11:28;95188.94;;;25.44;46.28
57801;BME280;43627;42.728;23.256;2022-09-09T08:13:55;95183.50;;;25.38;46.88
57801;BME280;43627;42.728;23.256;2022-09-09T08:16:31;95202.78;;;25.80;45.95
57801;BME280;43627;42.728;23.256;2022-09-09T08:18:58;95193.81;;;25.58;47.34
57801;BME280;43627;42.728;23.256;2022-09-09T08:21:30;95189.72;;;26.20;47.37
57801;BME280;43627;42.728;23.256;2022-09-09T08:23:59;95199.78;;;26.54;45.07
57801;BME280;43627;42.728;23.256;2022-09-09T08:26:32;95198.25;;;26.61;45.35
57801;BME280;43627;42.728;23.256;2022-09-09T08:29:03;95180.00;;;26.37;45.51
57801;BME280;43627;42.728;23.256;2022-09-09T08:31:35;95184.13;;;26.20;45.95
57801;BME280;43627;42.728;23.256;2022-09-09T08:34:04;95153.59;;;26.07;45.57
57801;BME280;43627;42.728;23.256;2022-09-09T08:36:40;95182.69;;;25.97;46.45
57801;BME280;43627;42.728;23.256;2022-09-09T08:39:09;95181.91;;;25.96;45.76
57801;BME280;43627;42.728;23.256;2022-09-09T08:42:05;95189.38;;;26.01;45.28
57801;BME280;43627;42.728;23.256;2022-09-09T08:44:46;95177.44;;;25.93;45.77
57801;BME280;43627;42.728;23.256;2022-09-09T08:50:34;95157.16;;;25.85;45.82
57801;BME280;43627;42.728;23.256;2022-09-09T08:53:05;95158.22;;;26.28;45.24
57801;BME280;43627;42.728;23.256;2022-09-09T08:55:56;95187.28;;;26.47;45.56
57801;BME280;43627;42.728;23.256;2022-09-09T08:58:27;95175.19;;;25.69;46.44
57801;BME280;43627;42.728;23.256;2022-09-09T09:11:43;95186.88;;;27.14;43.30
57801;BME280;43627;42.728;23.256;2022-09-09T09:14:20;95172.09;;;27.21;43.08
57801;BME280;43627;42.728;23.256;2022-09-09T09:19:24;95177.84;;;27.31;43.25
57801;BME280;43627;42.728;23.256;2022-09-09T09:24:52;95175.56;;;26.89;43.30
57801;BME280;43627;42.728;23.256;2022-09-09T09:29:54;95170.06;;;26.74;44.59
57801;BME280;43627;42.728;23.256;2022-09-09T09:32:54;95167.09;;;27.20;43.03
57801;BME280;43627;42.728;23.256;2022-09-09T09:35:22;95172.75;;;27.37;42.80
57801;BME280;43627;42.728;23.256;2022-09-09T09:37:50;95174.31;;;27.30;43.34
57801;BME280;43627;42.728;23.256;2022-09-09T09:40:37;95167.41;;;27.24;43.08
57801;BME280;43627;42.728;23.256;2022-09-09T09:43:03;95168.19;;;27.17;43.28
57801;BME280;43627;42.728;23.256;2022-09-09T09:45:41;95159.38;;;26.88;43.84
57801;BME280;43627;42.728;23.256;2022-09-09T09:48:31;95148.19;;;26.80;44.50
57801;BME280;43627;42.728;23.256;2022-09-09T09:51:01;95158.16;;;26.58;44.08
57801;BME280;43627;42.728;23.256;2022-09-09T09:53:34;95139.41;;;26.36;44.84
57801;BME280;43627;42.728;23.256;2022-09-09T09:56:05;95147.41;;;26.39;45.26
57801;BME280;43627;42.728;23.256;2022-09-09T10:01:24;95146.94;;;26.73;44.37
57801;BME280;43627;42.728;23.256;2022-09-09T10:03:54;95146.50;;;26.85;44.48
57801;BME280;43627;42.728;23.256;2022-09-09T10:06:35;95155.63;;;26.93;44.55
57801;BME280;43627;42.728;23.256;2022-09-09T10:09:04;95151.00;;;26.80;43.65
57801;BME280;43627;42.728;23.256;2022-09-09T10:11:44;95142.69;;;26.65;43.94
57801;BME280;43627;42.728;23.256;2022-09-09T10:19:33;95165.09;;;26.42;44.84
57801;BME280;43627;42.728;23.256;2022-09-09T10:22:24;95162.69;;;26.46;44.72
57801;BME280;43627;42.728;23.256;2022-09-09T10:25:34;95161.75;;;26.43;44.81
57801;BME280;43627;42.728;23.256;2022-09-09T10:28:27;95173.31;;;26.47;45.46
57801;BME280;43627;42.728;23.256;2022-09-09T10:38:42;95156.59;;;26.09;47.95
57801;BME280;43627;42.728;23.256;2022-09-09T10:41:16;95172.59;;;26.09;48.47
57801;BME280;43627;42.728;23.256;2022-09-09T10:46:57;95156.78;;;25.88;50.14
57801;BME280;43627;42.728;23.256;2022-09-09T10:52:06;95175.97;;;25.92;50.66
57801;BME280;43627;42.728;23.256;2022-09-09T11:00:14;95158.28;;;25.74;51.21
57801;BME280;43627;42.728;23.256;2022-09-09T11:02:41;95169.81;;;25.71;51.14
57801;BME280;43627;42.728;23.256;2022-09-09T11:07:56;95171.88;;;25.78;51.32
57801;BME280;43627;42.728;23.256;2022-09-09T11:10:38;95156.41;;;25.84;51.31
57801;BME280;43627;42.728;23.256;2022-09-09T11:13:24;95159.16;;;25.46;52.03
57801;BME280;43627;42.728;23.256;2022-09-09T11:15:58;95162.53;;;25.52;51.64
57801;BME280;43627;42.728;23.256;2022-09-09T11:18:29;95129.00;;;25.45;53.41
57801;BME280;43627;42.728;23.256;2022-09-09T11:21:00;95146.53;;;25.76;52.97
57801;BME280;43627;42.728;23.256;2022-09-09T11:23:40;95146.53;;;25.99;51.37
57801;BME280;43627;42.728;23.256;2022-09-09T11:26:14;95144.88;;;25.73;51.90
57801;BME280;43627;42.728;23.256;2022-09-09T11:29:31;95141.88;;;26.01;53.06
57801;BME280;43627;42.728;23.256;2022-09-09T11:31:50;95126.91;;;26.29;50.66
57801;BME280;43627;42.728;23.256;2022-09-09T11:34:37;95115.91;;;26.39;50.25
57801;BME280;43627;42.728;23.256;2022-09-09T11:42:27;95095.38;;;26.52;52.17
57801;BME280;43627;42.728;23.256;2022-09-09T11:44:54;95085.03;;;26.69;50.03
57801;BME280;43627;42.728;23.256;2022-09-09T11:47:27;95091.03;;;26.98;48.98
57801;BME280;43627;42.728;23.256;2022-09-09T11:52:43;95081.44;;;27.17;48.92
57801;BME280;43627;42.728;23.256;2022-09-09T11:58:00;95080.88;;;27.43;47.24
57801;BME280;43627;42.728;23.256;2022-09-09T12:00:35;95080.41;;;27.54;47.51
57801;BME280;43627;42.728;23.256;2022-09-09T12:03:04;95082.00;;;27.65;46.96
57801;BME280;43627;42.728;23.256;2022-09-09T12:05:41;95078.38;;;27.97;47.08
57801;BME280;43627;42.728;23.256;2022-09-09T12:08:17;95064.38;;;28.14;47.08
57801;BME280;43627;42.728;23.256;2022-09-09T12:10:56;95062.34;;;27.73;47.61
57801;BME280;43627;42.728;23.256;2022-09-09T12:13:26;95068.63;;;27.56;47.32
57801;BME280;43627;42.728;23.256;2022-09-09T12:15:55;95062.28;;;27.06;49.47
57801;BME280;43627;42.728;23.256;2022-09-09T12:18:35;95051.84;;;27.06;50.67
57801;BME280;43627;42.728;23.256;2022-09-09T12:23:52;95054.22;;;27.10;49.66
57801;BME280;43627;42.728;23.256;2022-09-09T12:32:25;95030.00;;;27.97;47.65
57801;BME280;43627;42.728;23.256;2022-09-09T12:34:55;95020.75;;;28.04;47.69
57801;BME280;43627;42.728;23.256;2022-09-09T12:37:54;95038.66;;;27.49;50.21
57801;BME280;43627;42.728;23.256;2022-09-09T12:40:31;95036.53;;;27.32;50.56
57801;BME280;43627;42.728;23.256;2022-09-09T12:43:17;95019.09;;;27.41;50.97
57801;BME280;43627;42.728;23.256;2022-09-09T12:45:44;95031.84;;;27.59;50.78
57801;BME280;43627;42.728;23.256;2022-09-09T12:48:12;95023.47;;;27.94;51.10
57801;BME280;43627;42.728;23.256;2022-09-09T12:50:49;95023.00;;;27.63;51.84
57801;BME280;43627;42.728;23.256;2022-09-09T12:53:31;95023.75;;;27.64;53.10
57801;BME280;43627;42.728;23.256;2022-09-09T12:56:01;95004.69;;;27.45;54.24
57801;BME280;43627;42.728;23.256;2022-09-09T12:58:30;95012.72;;;27.48;52.82
57801;BME280;43627;42.728;23.256;2022-09-09T13:01:01;95017.16;;;27.51;51.61
57801;BME280;43627;42.728;23.256;2022-09-09T13:03:33;95017.09;;;27.34;51.13
57801;BME280;43627;42.728;23.256;2022-09-09T13:06:19;95012.59;;;27.39;51.43
57801;BME280;43627;42.728;23.256;2022-09-09T13:08:52;95023.69;;;27.04;51.45
57801;BME280;43627;42.728;23.256;2022-09-09T13:11:37;95008.44;;;26.90;53.53
57801;BME280;43627;42.728;23.256;2022-09-09T13:14:06;95011.94;;;26.98;53.21
57801;BME280;43627;42.728;23.256;2022-09-09T13:16:35;95004.78;;;26.80;52.73
57801;BME280;43627;42.728;23.256;2022-09-09T13:19:10;95003.44;;;26.88;52.03
57801;BME280;43627;42.728;23.256;2022-09-09T13:21:41;95006.31;;;27.06;51.71
57801;BME280;43627;42.728;23.256;2022-09-09T13:24:29;95001.31;;;26.96;53.21
57801;BME280;43627;42.728;23.256;2022-09-09T13:27:03;94987.28;;;26.46;53.96
57801;BME280;43627;42.728;23.256;2022-09-09T13:29:33;94977.91;;;26.11;56.40
57801;BME280;43627;42.728;23.256;2022-09-09T13:32:16;94985.28;;;25.76;59.41
57801;BME280;43627;42.728;23.256;2022-09-09T13:35:00;94996.47;;;25.69;60.68
57801;BME280;43627;42.728;23.256;2022-09-09T13:37:35;94995.94;;;25.47;61.79
57801;BME280;43627;42.728;23.256;2022-09-09T13:40:05;94989.06;;;25.48;63.70
57801;BME280;43627;42.728;23.256;2022-09-09T13:42:39;94968.25;;;25.34;62.93
57801;BME280;43627;42.728;23.256;2022-09-09T13:45:19;94976.03;;;25.43;65.19
57801;BME280;43627;42.728;23.256;2022-09-09T13:47:50;94977.47;;;25.67;64.00
57801;BME280;43627;42.728;23.256;2022-09-09T13:50:29;94967.38;;;25.95;62.46
57801;BME280;43627;42.728;23.256;2022-09-09T13:52:58;94964.53;;;26.02;62.44
57801;BME280;43627;42.728;23.256;2022-09-09T13:55:26;94961.00;;;26.02;60.74
57801;BME280;43627;42.728;23.256;2022-09-09T13:57:59;94954.13;;;26.03;59.39
57801;BME280;43627;42.728;23.256;2022-09-09T14:00:30;94966.81;;;26.44;57.33
57801;BME280;43627;42.728;23.256;2022-09-09T14:02:57;94957.81;;;26.05;56.55
57801;BME280;43627;42.728;23.256;2022-09-09T14:05:24;94958.38;;;26.04;56.41
57801;BME280;43627;42.728;23.256;2022-09-09T14:07:51;94939.81;;;25.91;57.52
57801;BME280;43627;42.728;23.256;2022-09-09T14:10:19;94954.75;;;26.26;57.54
57801;BME280;43627;42.728;23.256;2022-09-09T14:12:45;94961.59;;;26.33;56.66
57801;BME280;43627;42.728;23.256;2022-09-09T14:15:13;94955.84;;;26.38;55.34
57801;BME280;43627;42.728;23.256;2022-09-09T14:17:41;94960.84;;;26.32;55.18
57801;BME280;43627;42.728;23.256;2022-09-09T14:20:08;94951.44;;;26.53;54.23
57801;BME280;43627;42.728;23.256;2022-09-09T14:22:38;94948.88;;;26.47;54.88
57801;BME280;43627;42.728;23.256;2022-09-09T14:25:05;94952.16;;;26.20;54.04
57801;BME280;43627;42.728;23.256;2022-09-09T14:27:32;94936.41;;;26.08;54.94
57801;BME280;43627;42.728;23.256;2022-09-09T14:29:59;94943.69;;;26.03;55.51
57801;BME280;43627;42.728;23.256;2022-09-09T14:32:29;94944.94;;;26.17;56.42
57801;BME280;43627;42.728;23.256;2022-09-09T14:34:55;94938.38;;;26.23;56.83
57801;BME280;43627;42.728;23.256;2022-09-09T14:37:22;94939.47;;;26.60;55.64
57801;BME280;43627;42.728;23.256;2022-09-09T14:39:49;94940.91;;;26.68;55.06
57801;BME280;43627;42.728;23.256;2022-09-09T14:42:17;94939.72;;;26.79;54.50
57801;BME280;43627;42.728;23.256;2022-09-09T14:44:44;94940.06;;;26.58;53.71
57801;BME280;43627;42.728;23.256;2022-09-09T14:47:11;94948.34;;;26.41;54.93
57801;BME280;43627;42.728;23.256;2022-09-09T14:49:38;94938.44;;;26.47;55.01
57801;BME280;43627;42.728;23.256;2022-09-09T14:52:09;94938.97;;;26.54;53.76
57801;BME280;43627;42.728;23.256;2022-09-09T14:54:36;94942.66;;;26.24;53.11
57801;BME280;43627;42.728;23.256;2022-09-09T14:57:02;94945.97;;;26.37;52.62
57801;BME280;43627;42.728;23.256;2022-09-09T14:59:29;94939.59;;;26.44;53.42
57801;BME280;43627;42.728;23.256;2022-09-09T15:01:56;94951.41;;;26.60;52.73
57801;BME280;43627;42.728;23.256;2022-09-09T15:04:22;94961.59;;;26.73;53.04
57801;BME280;43627;42.728;23.256;2022-09-09T15:06:49;94965.91;;;26.66;51.92
57801;BME280;43627;42.728;23.256;2022-09-09T15:09:18;94957.41;;;26.57;51.12
57801;BME280;43627;42.728;23.256;2022-09-09T15:11:45;94960.94;;;26.57;52.94
57801;BME280;43627;42.728;23.256;2022-09-09T15:14:12;94960.50;;;26.68;51.06
57801;BME280;43627;42.728;23.256;2022-09-09T15:16:39;94957.69;;;26.68;51.55